sensor_id;sensor_type;location;lat;lon;timestamp;temperature;humidity
12426;DHT22;6277;49.824;9.562;2023-04-01T00:00:17;13.00;79.80
12426;DHT22;6277;49.824;9.562;2023-04-01T00:02:42;13.00;79.60
12426;DHT22;6277;49.824;9.562;2023-04-01T00:05:09;13.00;79.60
12426;DHT22;6277;49.824;9.562;2023-04-01T00:07:36;13.00;79.30
12426;DHT22;6277;49.824;9.562;2023-04-01T00:10:03;13.10;79.30
12426;DHT22;6277;49.824;9.562;2023-04-01T00:12:28;13.00;79.40
12426;DHT22;6277;49.824;9.562;2023-04-01T00:14:54;13.10;79.40
12426;DHT22;6277;49.824;9.562;2023-04-01T00:17:19;13.10;79.30
12426;DHT22;6277;49.824;9.562;2023-04-01T00:19:45;13.10;79.00
12426;DHT22;6277;49.824;9.562;2023-04-01T00:22:11;13.10;78.90
12426;DHT22;6277;49.824;9.562;2023-04-01T00:24:37;13.10;79.00
12426;DHT22;6277;49.824;9.562;2023-04-01T00:27:03;13.10;79.00
12426;DHT22;6277;49.824;9.562;2023-04-01T00:29:29;13.10;78.90
12426;DHT22;6277;49.824;9.562;2023-04-01T00:31:57;13.10;78.50
12426;DHT22;6277;49.824;9.562;2023-04-01T00:34:23;13.00;78.40
12426;DHT22;6277;49.824;9.562;2023-04-01T00:36:52;13.10;78.50
12426;DHT22;6277;49.824;9.562;2023-04-01T00:39:19;13.10;78.20
12426;DHT22;6277;49.824;9.562;2023-04-01T00:41:45;13.10;78.20
12426;DHT22;6277;49.824;9.562;2023-04-01T00:44:23;13.10;78.30
12426;DHT22;6277;49.824;9.562;2023-04-01T00:46:49;13.10;78.10
12426;DHT22;6277;49.824;9.562;2023-04-01T00:49:17;13.00;78.10
12426;DHT22;6277;49.824;9.562;2023-04-01T00:51:45;13.00;78.70
12426;DHT22;6277;49.824;9.562;2023-04-01T00:54:14;13.10;78.00
12426;DHT22;6277;49.824;9.562;2023-04-01T00:56:45;13.00;78.00
12426;DHT22;6277;49.824;9.562;2023-04-01T00:59:18;13.00;77.50
12426;DHT22;6277;49.824;9.562;2023-04-01T01:01:45;13.10;77.70
12426;DHT22;6277;49.824;9.562;2023-04-01T01:04:26;13.10;78.00
12426;DHT22;6277;49.824;9.562;2023-04-01T01:07:13;13.10;77.20
12426;DHT22;6277;49.824;9.562;2023-04-01T01:10:00;13.10;76.80
12426;DHT22;6277;49.824;9.562;2023-04-01T01:23:42;13.00;76.30
12426;DHT22;6277;49.824;9.562;2023-04-01T01:29:29;13.10;76.60
12426;DHT22;6277;49.824;9.562;2023-04-01T01:37:29;13.10;77.20
12426;DHT22;6277;49.824;9.562;2023-04-01T01:39:59;13.10;77.00
12426;DHT22;6277;49.824;9.562;2023-04-01T01:42:27;13.10;76.90
12426;DHT22;6277;49.824;9.562;2023-04-01T01:44:55;13.10;76.90
12426;DHT22;6277;49.824;9.562;2023-04-01T01:47:22;13.10;76.80
12426;DHT22;6277;49.824;9.562;2023-04-01T01:49:48;13.10;76.90
12426;DHT22;6277;49.824;9.562;2023-04-01T01:52:17;13.00;76.80
12426;DHT22;6277;49.824;9.562;2023-04-01T01:54:54;13.00;76.90
12426;DHT22;6277;49.824;9.562;2023-04-01T01:57:24;13.00;76.00
12426;DHT22;6277;49.824;9.562;2023-04-01T01:59:54;13.00;76.40
12426;DHT22;6277;49.824;9.562;2023-04-01T02:02:22;13.00;76.50
12426;DHT22;6277;49.824;9.562;2023-04-01T02:04:49;13.00;76.30
12426;DHT22;6277;49.824;9.562;2023-04-01T02:07:20;13.00;76.70
12426;DHT22;6277;49.824;9.562;2023-04-01T02:09:47;13.00;76.40
12426;DHT22;6277;49.824;9.562;2023-04-01T02:12:15;13.00;76.70
12426;DHT22;6277;49.824;9.562;2023-04-01T02:14:57;13.00;76.30
12426;DHT22;6277;49.824;9.562;2023-04-01T02:17:27;13.00;76.10
12426;DHT22;6277;49.824;9.562;2023-04-01T02:20:01;13.00;76.20
12426;DHT22;6277;49.824;9.562;2023-04-01T02:22:33;13.00;76.10
12426;DHT22;6277;49.824;9.562;2023-04-01T02:25:04;13.00;76.20
12426;DHT22;6277;49.824;9.562;2023-04-01T02:27:31;13.00;76.10
12426;DHT22;6277;49.824;9.562;2023-04-01T02:29:57;13.00;76.40
12426;DHT22;6277;49.824;9.562;2023-04-01T02:32:23;13.00;76.40
12426;DHT22;6277;49.824;9.562;2023-04-01T02:34:50;13.00;76.40
12426;DHT22;6277;49.824;9.562;2023-04-01T02:37:16;13.00;76.30
12426;DHT22;6277;49.824;9.562;2023-04-01T02:39:42;13.00;76.10
12426;DHT22;6277;49.824;9.562;2023-04-01T02:42:08;13.00;76.10
12426;DHT22;6277;49.824;9.562;2023-04-01T02:44:34;13.00;76.10
12426;DHT22;6277;49.824;9.562;2023-04-01T02:47:00;13.00;75.80
12426;DHT22;6277;49.824;9.562;2023-04-01T02:49:26;13.00;75.90
12426;DHT22;6277;49.824;9.562;2023-04-01T02:51:51;13.00;76.10
12426;DHT22;6277;49.824;9.562;2023-04-01T02:54:17;13.00;76.00
12426;DHT22;6277;49.824;9.562;2023-04-01T02:56:43;13.00;75.80
12426;DHT22;6277;49.824;9.562;2023-04-01T02:59:09;13.00;75.60
12426;DHT22;6277;49.824;9.562;2023-04-01T03:01:35;12.90;75.80
12426;DHT22;6277;49.824;9.562;2023-04-01T03:04:00;13.00;75.80
12426;DHT22;6277;49.824;9.562;2023-04-01T03:06:26;12.90;75.80
12426;DHT22;6277;49.824;9.562;2023-04-01T03:08:51;12.90;75.80
12426;DHT22;6277;49.824;9.562;2023-04-01T03:11:17;12.90;75.60
12426;DHT22;6277;49.824;9.562;2023-04-01T03:13:42;13.00;75.80
12426;DHT22;6277;49.824;9.562;2023-04-01T03:16:08;13.00;75.70
12426;DHT22;6277;49.824;9.562;2023-04-01T03:18:33;13.00;75.60
12426;DHT22;6277;49.824;9.562;2023-04-01T03:21:19;13.00;75.60
12426;DHT22;6277;49.824;9.562;2023-04-01T03:23:45;13.00;74.90
12426;DHT22;6277;49.824;9.562;2023-04-01T03:26:11;13.00;75.60
12426;DHT22;6277;49.824;9.562;2023-04-01T03:28:37;13.00;75.40
12426;DHT22;6277;49.824;9.562;2023-04-01T03:31:02;13.00;75.40
12426;DHT22;6277;49.824;9.562;2023-04-01T03:33:28;13.00;75.60
12426;DHT22;6277;49.824;9.562;2023-04-01T03:35:54;13.00;75.40
12426;DHT22;6277;49.824;9.562;2023-04-01T03:38:20;13.00;75.40
12426;DHT22;6277;49.824;9.562;2023-04-01T03:40:45;13.00;75.40
12426;DHT22;6277;49.824;9.562;2023-04-01T03:43:11;13.00;75.20
12426;DHT22;6277;49.824;9.562;2023-04-01T03:45:48;13.00;75.10
12426;DHT22;6277;49.824;9.562;2023-04-01T03:48:15;13.00;74.30
12426;DHT22;6277;49.824;9.562;2023-04-01T03:50:41;13.00;75.00
12426;DHT22;6277;49.824;9.562;2023-04-01T03:53:07;12.90;75.10
12426;DHT22;6277;49.824;9.562;2023-04-01T03:55:33;13.00;75.10
12426;DHT22;6277;49.824;9.562;2023-04-01T03:57:59;13.00;75.20
12426;DHT22;6277;49.824;9.562;2023-04-01T04:00:24;13.00;75.20
12426;DHT22;6277;49.824;9.562;2023-04-01T04:02:50;13.00;75.70
12426;DHT22;6277;49.824;9.562;2023-04-01T04:05:16;13.00;75.00
12426;DHT22;6277;49.824;9.562;2023-04-01T04:07:41;13.00;75.00
12426;DHT22;6277;49.824;9.562;2023-04-01T04:10:07;13.00;75.70
12426;DHT22;6277;49.824;9.562;2023-04-01T04:12:33;13.00;74.80
12426;DHT22;6277;49.824;9.562;2023-04-01T04:14:58;13.00;74.80
12426;DHT22;6277;49.824;9.562;2023-04-01T04:17:24;13.00;74.90
12426;DHT22;6277;49.824;9.562;2023-04-01T04:19:49;13.00;74.90
12426;DHT22;6277;49.824;9.562;2023-04-01T04:22:15;13.00;74.90
12426;DHT22;6277;49.824;9.562;2023-04-01T04:24:40;13.00;74.70
12426;DHT22;6277;49.824;9.562;2023-04-01T04:27:06;13.00;74.60
12426;DHT22;6277;49.824;9.562;2023-04-01T04:29:31;13.00;74.60
12426;DHT22;6277;49.824;9.562;2023-04-01T04:31:57;13.00;74.60
12426;DHT22;6277;49.824;9.562;2023-04-01T04:34:22;13.00;74.60
12426;DHT22;6277;49.824;9.562;2023-04-01T04:36:48;13.00;74.60
12426;DHT22;6277;49.824;9.562;2023-04-01T04:39:15;13.00;74.40
12426;DHT22;6277;49.824;9.562;2023-04-01T04:41:40;13.00;74.30
12426;DHT22;6277;49.824;9.562;2023-04-01T04:44:06;13.00;74.40
12426;DHT22;6277;49.824;9.562;2023-04-01T04:46:32;13.10;74.50
12426;DHT22;6277;49.824;9.562;2023-04-01T04:48:57;13.00;74.40
12426;DHT22;6277;49.824;9.562;2023-04-01T04:51:23;13.10;74.40
12426;DHT22;6277;49.824;9.562;2023-04-01T04:53:49;13.00;74.40
12426;DHT22;6277;49.824;9.562;2023-04-01T04:56:21;13.00;74.00
12426;DHT22;6277;49.824;9.562;2023-04-01T04:58:48;13.10;73.60
12426;DHT22;6277;49.824;9.562;2023-04-01T05:01:15;13.10;74.10
12426;DHT22;6277;49.824;9.562;2023-04-01T05:03:41;13.10;74.00
12426;DHT22;6277;49.824;9.562;2023-04-01T05:06:08;13.00;73.90
12426;DHT22;6277;49.824;9.562;2023-04-01T05:08:34;13.00;74.00
12426;DHT22;6277;49.824;9.562;2023-04-01T05:11:00;13.00;74.00
12426;DHT22;6277;49.824;9.562;2023-04-01T05:13:27;13.00;74.00
12426;DHT22;6277;49.824;9.562;2023-04-01T05:15:52;13.00;74.10
12426;DHT22;6277;49.824;9.562;2023-04-01T05:18:18;13.00;74.10
12426;DHT22;6277;49.824;9.562;2023-04-01T05:20:51;13.00;74.20
12426;DHT22;6277;49.824;9.562;2023-04-01T05:23:18;13.00;73.80
12426;DHT22;6277;49.824;9.562;2023-04-01T05:25:45;13.00;74.30
12426;DHT22;6277;49.824;9.562;2023-04-01T05:28:11;13.00;74.40
12426;DHT22;6277;49.824;9.562;2023-04-01T05:30:39;13.00;74.50
12426;DHT22;6277;49.824;9.562;2023-04-01T05:33:04;13.00;74.50
12426;DHT22;6277;49.824;9.562;2023-04-01T05:35:30;13.10;74.60
12426;DHT22;6277;49.824;9.562;2023-04-01T05:37:55;13.10;74.70
12426;DHT22;6277;49.824;9.562;2023-04-01T05:40:21;13.10;74.60
12426;DHT22;6277;49.824;9.562;2023-04-01T05:42:46;13.00;74.60
12426;DHT22;6277;49.824;9.562;2023-04-01T05:45:12;13.00;74.60
12426;DHT22;6277;49.824;9.562;2023-04-01T05:47:40;13.00;74.60
12426;DHT22;6277;49.824;9.562;2023-04-01T05:50:08;13.00;74.50
12426;DHT22;6277;49.824;9.562;2023-04-01T05:52:33;13.00;74.60
12426;DHT22;6277;49.824;9.562;2023-04-01T05:54:59;13.10;74.70
12426;DHT22;6277;49.824;9.562;2023-04-01T05:57:25;13.10;74.60
12426;DHT22;6277;49.824;9.562;2023-04-01T05:59:51;13.10;74.70
12426;DHT22;6277;49.824;9.562;2023-04-01T06:02:17;13.00;74.60
12426;DHT22;6277;49.824;9.562;2023-04-01T06:04:43;13.00;75.20
12426;DHT22;6277;49.824;9.562;2023-04-01T06:07:14;13.00;75.10
12426;DHT22;6277;49.824;9.562;2023-04-01T06:09:40;13.00;74.60
12426;DHT22;6277;49.824;9.562;2023-04-01T06:12:45;13.00;74.80
12426;DHT22;6277;49.824;9.562;2023-04-01T06:24:27;13.10;74.40
12426;DHT22;6277;49.824;9.562;2023-04-01T06:29:55;13.10;74.60
12426;DHT22;6277;49.824;9.562;2023-04-01T06:46:58;13.30;74.40
12426;DHT22;6277;49.824;9.562;2023-04-01T06:49:56;13.30;74.80
12426;DHT22;6277;49.824;9.562;2023-04-01T06:52:34;13.40;74.50
12426;DHT22;6277;49.824;9.562;2023-04-01T06:57:47;13.40;74.80
12426;DHT22;6277;49.824;9.562;2023-04-01T07:00:22;13.40;75.20
12426;DHT22;6277;49.824;9.562;2023-04-01T07:03:02;13.50;75.60
12426;DHT22;6277;49.824;9.562;2023-04-01T07:05:31;13.50;75.10
12426;DHT22;6277;49.824;9.562;2023-04-01T07:08:00;13.60;75.60
12426;DHT22;6277;49.824;9.562;2023-04-01T07:10:50;13.60;75.40
12426;DHT22;6277;49.824;9.562;2023-04-01T07:13:27;13.70;74.70
12426;DHT22;6277;49.824;9.562;2023-04-01T07:16:20;13.60;74.60
12426;DHT22;6277;49.824;9.562;2023-04-01T07:18:54;13.70;74.30
12426;DHT22;6277;49.824;9.562;2023-04-01T07:21:46;13.70;74.90
12426;DHT22;6277;49.824;9.562;2023-04-01T07:24:22;13.70;74.10
12426;DHT22;6277;49.824;9.562;2023-04-01T07:26:55;13.70;74.80
12426;DHT22;6277;49.824;9.562;2023-04-01T07:29:21;13.70;74.90
12426;DHT22;6277;49.824;9.562;2023-04-01T07:35:09;13.70;74.50
12426;DHT22;6277;49.824;9.562;2023-04-01T07:46:07;13.60;74.60
12426;DHT22;6277;49.824;9.562;2023-04-01T07:51:29;13.50;74.60
12426;DHT22;6277;49.824;9.562;2023-04-01T07:54:29;13.50;74.80
12426;DHT22;6277;49.824;9.562;2023-04-01T07:57:07;13.50;74.60
12426;DHT22;6277;49.824;9.562;2023-04-01T08:05:25;13.50;75.10
12426;DHT22;6277;49.824;9.562;2023-04-01T08:08:11;13.40;75.20
12426;DHT22;6277;49.824;9.562;2023-04-01T08:18:46;13.50;75.60
12426;DHT22;6277;49.824;9.562;2023-04-01T08:21:32;13.50;75.60
12426;DHT22;6277;49.824;9.562;2023-04-01T08:24:07;13.50;75.70
12426;DHT22;6277;49.824;9.562;2023-04-01T08:26:42;13.50;75.80
12426;DHT22;6277;49.824;9.562;2023-04-01T08:29:14;13.50;75.80
12426;DHT22;6277;49.824;9.562;2023-04-01T08:32:00;13.60;75.90
12426;DHT22;6277;49.824;9.562;2023-04-01T08:34:32;13.60;75.50
12426;DHT22;6277;49.824;9.562;2023-04-01T08:37:03;13.60;76.00
12426;DHT22;6277;49.824;9.562;2023-04-01T08:39:43;13.70;76.10
12426;DHT22;6277;49.824;9.562;2023-04-01T08:42:26;13.70;76.20
12426;DHT22;6277;49.824;9.562;2023-04-01T08:45:21;13.70;76.40
12426;DHT22;6277;49.824;9.562;2023-04-01T08:51:08;13.90;75.90
12426;DHT22;6277;49.824;9.562;2023-04-01T08:56:40;14.00;75.90
12426;DHT22;6277;49.824;9.562;2023-04-01T08:59:45;14.00;76.70
12426;DHT22;6277;49.824;9.562;2023-04-01T09:14:01;14.40;75.80
12426;DHT22;6277;49.824;9.562;2023-04-01T09:19:59;14.50;75.90
12426;DHT22;6277;49.824;9.562;2023-04-01T09:25:48;14.60;76.10
12426;DHT22;6277;49.824;9.562;2023-04-01T09:28:22;14.70;76.00
12426;DHT22;6277;49.824;9.562;2023-04-01T09:31:12;14.70;75.70
12426;DHT22;6277;49.824;9.562;2023-04-01T09:34:04;14.80;75.30
12426;DHT22;6277;49.824;9.562;2023-04-01T09:45:01;14.90;75.60
12426;DHT22;6277;49.824;9.562;2023-04-01T09:53:51;15.10;75.90
12426;DHT22;6277;49.824;9.562;2023-04-01T10:02:47;15.30;75.00
12426;DHT22;6277;49.824;9.562;2023-04-01T10:08:19;15.40;75.40
12426;DHT22;6277;49.824;9.562;2023-04-01T10:19:42;15.60;75.00
12426;DHT22;6277;49.824;9.562;2023-04-01T10:22:31;15.60;75.40
12426;DHT22;6277;49.824;9.562;2023-04-01T10:36:35;15.80;76.40
12426;DHT22;6277;49.824;9.562;2023-04-01T10:39:17;15.90;75.70
12426;DHT22;6277;49.824;9.562;2023-04-01T10:44:58;16.10;75.50
12426;DHT22;6277;49.824;9.562;2023-04-01T10:58:57;16.10;74.40
12426;DHT22;6277;49.824;9.562;2023-04-01T11:10:52;16.00;74.40
12426;DHT22;6277;49.824;9.562;2023-04-01T11:25:18;15.90;74.70
12426;DHT22;6277;49.824;9.562;2023-04-01T11:28:44;15.90;75.20
12426;DHT22;6277;49.824;9.562;2023-04-01T11:33:34;15.90;75.10
12426;DHT22;6277;49.824;9.562;2023-04-01T11:36:21;16.00;75.60
12426;DHT22;6277;49.824;9.562;2023-04-01T11:39:20;16.00;75.00
12426;DHT22;6277;49.824;9.562;2023-04-01T11:44:27;16.00;75.30
12426;DHT22;6277;49.824;9.562;2023-04-01T11:47:15;16.00;74.80
12426;DHT22;6277;49.824;9.562;2023-04-01T11:52:46;16.00;75.00
12426;DHT22;6277;49.824;9.562;2023-04-01T11:55:54;16.00;75.40
12426;DHT22;6277;49.824;9.562;2023-04-01T12:17:46;16.00;74.30
12426;DHT22;6277;49.824;9.562;2023-04-01T12:20:41;16.00;74.50
12426;DHT22;6277;49.824;9.562;2023-04-01T12:24:32;16.00;75.00
12426;DHT22;6277;49.824;9.562;2023-04-01T12:26:47;15.90;74.20
12426;DHT22;6277;49.824;9.562;2023-04-01T12:40:45;15.80;75.70
12426;DHT22;6277;49.824;9.562;2023-04-01T12:46:27;15.70;75.20
12426;DHT22;6277;49.824;9.562;2023-04-01T13:03:17;15.70;75.50
12426;DHT22;6277;49.824;9.562;2023-04-01T13:08:34;15.80;75.40
12426;DHT22;6277;49.824;9.562;2023-04-01T13:12:05;15.80;75.70
12426;DHT22;6277;49.824;9.562;2023-04-01T13:14:25;15.80;75.00
12426;DHT22;6277;49.824;9.562;2023-04-01T13:22:07;15.50;74.80
12426;DHT22;6277;49.824;9.562;2023-04-01T13:27:36;15.30;75.70
12426;DHT22;6277;49.824;9.562;2023-04-01T13:33:27;15.30;77.20
12426;DHT22;6277;49.824;9.562;2023-04-01T13:36:08;15.40;77.20
12426;DHT22;6277;49.824;9.562;2023-04-01T13:44:29;15.70;76.40
12426;DHT22;6277;49.824;9.562;2023-04-01T13:47:33;15.70;76.00
12426;DHT22;6277;49.824;9.562;2023-04-01T14:01:15;16.00;76.40
12426;DHT22;6277;49.824;9.562;2023-04-01T14:09:25;16.20;76.60
12426;DHT22;6277;49.824;9.562;2023-04-01T14:12:10;16.30;76.40
12426;DHT22;6277;49.824;9.562;2023-04-01T14:20:37;16.30;75.60
12426;DHT22;6277;49.824;9.562;2023-04-01T14:26:19;16.10;74.60
12426;DHT22;6277;49.824;9.562;2023-04-01T14:34:43;15.70;75.20
12426;DHT22;6277;49.824;9.562;2023-04-01T14:40:22;15.50;75.80
12426;DHT22;6277;49.824;9.562;2023-04-01T14:42:59;15.50;75.50
12426;DHT22;6277;49.824;9.562;2023-04-01T14:45:46;15.40;75.80
12426;DHT22;6277;49.824;9.562;2023-04-01T14:54:13;15.30;76.20
12426;DHT22;6277;49.824;9.562;2023-04-01T14:59:14;15.30;76.80
12426;DHT22;6277;49.824;9.562;2023-04-01T15:12:35;15.40;75.90
12426;DHT22;6277;49.824;9.562;2023-04-01T15:21:12;15.30;75.70
12426;DHT22;6277;49.824;9.562;2023-04-01T15:24:19;15.30;75.50
12426;DHT22;6277;49.824;9.562;2023-04-01T15:35:23;15.00;75.40
12426;DHT22;6277;49.824;9.562;2023-04-01T15:37:56;14.90;75.70
12426;DHT22;6277;49.824;9.562;2023-04-01T15:40:27;14.90;76.10
12426;DHT22;6277;49.824;9.562;2023-04-01T15:43:07;14.90;76.30
12426;DHT22;6277;49.824;9.562;2023-04-01T15:46:09;14.80;76.50
12426;DHT22;6277;49.824;9.562;2023-04-01T16:00:05;14.70;76.20
12426;DHT22;6277;49.824;9.562;2023-04-01T16:02:45;14.60;75.90
12426;DHT22;6277;49.824;9.562;2023-04-01T16:08:40;14.60;76.10
12426;DHT22;6277;49.824;9.562;2023-04-01T16:17:27;14.50;76.00
12426;DHT22;6277;49.824;9.562;2023-04-01T16:20:02;14.40;76.00
12426;DHT22;6277;49.824;9.562;2023-04-01T16:22:40;14.40;76.10
12426;DHT22;6277;49.824;9.562;2023-04-01T16:25:39;14.30;76.30
12426;DHT22;6277;49.824;9.562;2023-04-01T16:29:38;14.20;76.10
12426;DHT22;6277;49.824;9.562;2023-04-01T16:31:35;14.20;76.30
12426;DHT22;6277;49.824;9.562;2023-04-01T16:34:24;14.20;76.90
12426;DHT22;6277;49.824;9.562;2023-04-01T16:37:17;14.10;76.80
12426;DHT22;6277;49.824;9.562;2023-04-01T16:39:54;14.10;77.00
12426;DHT22;6277;49.824;9.562;2023-04-01T16:42:48;14.20;77.10
12426;DHT22;6277;49.824;9.562;2023-04-01T16:45:26;14.20;77.10
12426;DHT22;6277;49.824;9.562;2023-04-01T16:48:01;14.20;76.90
12426;DHT22;6277;49.824;9.562;2023-04-01T16:50:43;14.20;76.90
12426;DHT22;6277;49.824;9.562;2023-04-01T16:55:55;14.20;76.90
12426;DHT22;6277;49.824;9.562;2023-04-01T16:58:36;14.20;76.60
12426;DHT22;6277;49.824;9.562;2023-04-01T17:01:20;14.20;76.70
12426;DHT22;6277;49.824;9.562;2023-04-01T17:03:53;14.10;76.60
12426;DHT22;6277;49.824;9.562;2023-04-01T17:06:36;14.10;76.60
12426;DHT22;6277;49.824;9.562;2023-04-01T17:12:09;14.00;76.50
12426;DHT22;6277;49.824;9.562;2023-04-01T17:17:37;13.90;76.50
12426;DHT22;6277;49.824;9.562;2023-04-01T17:31:10;13.60;76.50
12426;DHT22;6277;49.824;9.562;2023-04-01T17:33:53;13.60;76.80
12426;DHT22;6277;49.824;9.562;2023-04-01T17:39:18;13.50;76.60
12426;DHT22;6277;49.824;9.562;2023-04-01T17:41:57;13.50;76.80
12426;DHT22;6277;49.824;9.562;2023-04-01T17:44:50;13.50;76.80
12426;DHT22;6277;49.824;9.562;2023-04-01T17:52:39;13.40;76.80
12426;DHT22;6277;49.824;9.562;2023-04-01T18:00:47;13.30;76.70
12426;DHT22;6277;49.824;9.562;2023-04-01T18:04:17;13.30;76.80
12426;DHT22;6277;49.824;9.562;2023-04-01T18:07:09;13.20;76.70
12426;DHT22;6277;49.824;9.562;2023-04-01T18:20:28;13.00;77.30
12426;DHT22;6277;49.824;9.562;2023-04-01T18:23:14;13.00;77.30
12426;DHT22;6277;49.824;9.562;2023-04-01T18:25:49;13.00;77.50
12426;DHT22;6277;49.824;9.562;2023-04-01T18:28:38;13.00;77.50
12426;DHT22;6277;49.824;9.562;2023-04-01T18:31:05;13.00;77.40
12426;DHT22;6277;49.824;9.562;2023-04-01T18:39:15;13.00;77.50
12426;DHT22;6277;49.824;9.562;2023-04-01T18:44:46;13.00;77.50
12426;DHT22;6277;49.824;9.562;2023-04-01T18:47:15;13.00;77.50
12426;DHT22;6277;49.824;9.562;2023-04-01T18:49:46;13.00;77.80
12426;DHT22;6277;49.824;9.562;2023-04-01T18:52:33;13.00;77.80
12426;DHT22;6277;49.824;9.562;2023-04-01T18:57:51;13.00;77.70
12426;DHT22;6277;49.824;9.562;2023-04-01T19:00:34;12.90;77.60
12426;DHT22;6277;49.824;9.562;2023-04-01T19:05:48;12.90;77.70
12426;DHT22;6277;49.824;9.562;2023-04-01T19:08:34;12.90;77.80
12426;DHT22;6277;49.824;9.562;2023-04-01T19:11:04;12.90;77.60
12426;DHT22;6277;49.824;9.562;2023-04-01T19:13:44;12.90;77.90
12426;DHT22;6277;49.824;9.562;2023-04-01T19:16:26;12.90;77.90
12426;DHT22;6277;49.824;9.562;2023-04-01T19:21:55;12.90;77.80
12426;DHT22;6277;49.824;9.562;2023-04-01T19:27:03;12.90;78.10
12426;DHT22;6277;49.824;9.562;2023-04-01T19:35:17;12.90;78.20
12426;DHT22;6277;49.824;9.562;2023-04-01T19:37:51;12.80;77.70
12426;DHT22;6277;49.824;9.562;2023-04-01T19:43:52;12.90;77.80
12426;DHT22;6277;49.824;9.562;2023-04-01T19:46:41;12.90;77.80
12426;DHT22;6277;49.824;9.562;2023-04-01T20:08:13;12.80;77.50
12426;DHT22;6277;49.824;9.562;2023-04-01T20:10:59;12.80;77.70
12426;DHT22;6277;49.824;9.562;2023-04-01T20:16:20;12.80;77.70
12426;DHT22;6277;49.824;9.562;2023-04-01T20:18:58;12.80;77.90
12426;DHT22;6277;49.824;9.562;2023-04-01T20:21:41;12.80;77.80
12426;DHT22;6277;49.824;9.562;2023-04-01T20:26:42;12.70;77.80
12426;DHT22;6277;49.824;9.562;2023-04-01T20:32:22;12.70;78.30
12426;DHT22;6277;49.824;9.562;2023-04-01T20:37:48;12.60;77.70
12426;DHT22;6277;49.824;9.562;2023-04-01T20:40:39;12.60;77.70
12426;DHT22;6277;49.824;9.562;2023-04-01T20:43:23;12.60;77.70
12426;DHT22;6277;49.824;9.562;2023-04-01T20:45:59;12.50;77.80
12426;DHT22;6277;49.824;9.562;2023-04-01T20:51:18;12.40;77.70
12426;DHT22;6277;49.824;9.562;2023-04-01T20:54:53;12.30;77.70
12426;DHT22;6277;49.824;9.562;2023-04-01T21:00:00;12.20;77.60
12426;DHT22;6277;49.824;9.562;2023-04-01T21:10:50;12.10;78.00
12426;DHT22;6277;49.824;9.562;2023-04-01T21:13:44;12.10;78.30
12426;DHT22;6277;49.824;9.562;2023-04-01T21:27:42;12.20;78.70
12426;DHT22;6277;49.824;9.562;2023-04-01T21:36:19;12.30;78.60
12426;DHT22;6277;49.824;9.562;2023-04-01T21:41:34;12.30;78.60
12426;DHT22;6277;49.824;9.562;2023-04-01T21:58:53;12.30;78.50
12426;DHT22;6277;49.824;9.562;2023-04-01T22:06:56;12.40;78.80
12426;DHT22;6277;49.824;9.562;2023-04-01T22:17:28;12.50;78.70
12426;DHT22;6277;49.824;9.562;2023-04-01T22:25:30;12.50;78.70
12426;DHT22;6277;49.824;9.562;2023-04-01T22:30:59;12.50;78.60
12426;DHT22;6277;49.824;9.562;2023-04-01T22:42:06;12.40;78.40
12426;DHT22;6277;49.824;9.562;2023-04-01T22:48:09;12.40;78.40
12426;DHT22;6277;49.824;9.562;2023-04-01T22:50:43;12.40;78.50
12426;DHT22;6277;49.824;9.562;2023-04-01T22:56:16;12.40;78.50
12426;DHT22;6277;49.824;9.562;2023-04-01T22:58:55;12.40;78.60
12426;DHT22;6277;49.824;9.562;2023-04-01T23:01:25;12.40;78.70
12426;DHT22;6277;49.824;9.562;2023-04-01T23:03:56;12.40;78.80
12426;DHT22;6277;49.824;9.562;2023-04-01T23:06:31;12.40;78.80
12426;DHT22;6277;49.824;9.562;2023-04-01T23:22:46;12.40;78.80
12426;DHT22;6277;49.824;9.562;2023-04-01T23:28:39;12.40;78.60
12426;DHT22;6277;49.824;9.562;2023-04-01T23:31:32;12.30;78.60
12426;DHT22;6277;49.824;9.562;2023-04-01T23:34:01;12.30;78.70
12426;DHT22;6277;49.824;9.562;2023-04-01T23:36:28;12.30;79.00
12426;DHT22;6277;49.824;9.562;2023-04-01T23:38:55;12.30;79.10
12426;DHT22;6277;49.824;9.562;2023-04-01T23:41:31;12.40;79.20
12426;DHT22;6277;49.824;9.562;2023-04-01T23:44:16;12.40;79.10
12426;DHT22;6277;49.824;9.562;2023-04-01T23:46:44;12.40;78.80
12426;DHT22;6277;49.824;9.562;2023-04-01T23:49:19;12.40;79.10
12426;DHT22;6277;49.824;9.562;2023-04-01T23:52:27;12.40;78.90
12426;DHT22;6277;49.824;9.562;2023-04-01T23:57:40;12.50;79.10
